Time;durP1;ratioP1;P1;durP2;ratioP2;P2;SDS_P1;SDS_P2;PMS_P1;PMS_P2;Temp;Humidity;BMP_temperature;BMP_pressure;BME280_temperature;BME280_humidity;BME280_pressure;Samples;Min_cycle;Max_cycle;Signal;HPM_P1;HPM_P2
2022/12/16 00:00:23;;;;;;;72.00;39.30;;;-1.00;99.90;;;;;;5074044;28;20105;-29
2022/12/16 00:02:52;;;;;;;70.43;36.57;;;-1.00;99.90;;;;;;5073293;28;20098;-29
2022/12/16 00:05:21;;;;;;;52.87;28.20;;;-1.00;99.90;;;;;;5072465;28;20566;-29
2022/12/16 00:07:47;;;;;;;49.27;27.93;;;-1.00;99.90;;;;;;5072188;28;20628;-29
2022/12/16 00:10:13;;;;;;;39.20;21.33;;;-0.90;99.90;;;;;;5074023;28;20177;-29
2022/12/16 00:12:39;;;;;;;37.53;20.10;;;-0.80;99.90;;;;;;5077512;28;20045;-29
2022/12/16 00:15:05;;;;;;;38.53;18.00;;;-0.60;99.90;;;;;;5077436;28;20055;-29
2022/12/16 00:17:31;;;;;;;33.97;17.88;;;-0.50;99.90;;;;;;5059900;28;20135;-29
2022/12/16 00:19:57;;;;;;;37.23;15.07;;;-0.50;99.90;;;;;;5076946;28;20119;-30
2022/12/16 00:22:22;;;;;;;24.57;12.40;;;-0.60;99.90;;;;;;5077530;28;20052;-29
2022/12/16 00:24:52;;;;;;;24.53;11.50;;;-0.50;99.90;;;;;;5077436;28;20056;-29
2022/12/16 00:27:18;;;;;;;22.20;9.30;;;-0.60;99.90;;;;;;5078012;28;20440;-29
2022/12/16 00:29:43;;;;;;;17.07;7.73;;;-0.60;99.90;;;;;;5077367;28;20127;-30
2022/12/16 00:32:09;;;;;;;18.70;8.43;;;-0.60;99.90;;;;;;5077358;28;20544;-29
2022/12/16 00:34:34;;;;;;;15.70;6.83;;;-0.40;99.90;;;;;;5076982;28;20053;-29
2022/12/16 00:37:00;;;;;;;13.57;6.70;;;-0.20;99.90;;;;;;5077515;28;20045;-29
2022/12/16 00:39:26;;;;;;;12.95;5.75;;;-0.10;99.90;;;;;;5076837;28;20037;-29
2022/12/16 00:41:51;;;;;;;13.27;6.63;;;0.00;99.90;;;;;;5077002;28;20064;-29
2022/12/16 00:44:17;;;;;;;17.77;6.43;;;0.10;99.90;;;;;;5059822;28;20049;-29
2022/12/16 00:46:43;;;;;;;14.80;5.73;;;0.10;99.90;;;;;;5076786;28;20101;-29
2022/12/16 00:49:08;;;;;;;15.63;6.10;;;0.10;99.90;;;;;;5075646;28;20041;-29
2022/12/16 00:51:34;;;;;;;12.80;5.10;;;0.10;99.90;;;;;;5077005;28;20135;-29
2022/12/16 00:54:00;;;;;;;17.30;6.10;;;0.10;99.90;;;;;;5059067;28;20044;-30
2022/12/16 00:56:25;;;;;;;14.37;4.70;;;0.10;99.90;;;;;;5075481;28;20053;-29
2022/12/16 00:58:51;;;;;;;14.53;5.37;;;0.10;99.90;;;;;;5076524;28;20127;-30
2022/12/16 01:01:17;;;;;;;11.90;5.17;;;0.10;99.90;;;;;;5076387;28;20044;-30
2022/12/16 01:03:43;;;;;;;12.17;5.60;;;0.20;99.90;;;;;;5076503;28;20049;-30
2022/12/16 01:06:14;;;;;;;7.63;4.00;;;0.30;99.90;;;;;;5077254;28;20550;-30
2022/12/16 01:08:47;;;;;;;12.20;5.37;;;0.30;99.90;;;;;;5075164;28;20040;-29
2022/12/16 01:11:17;;;;;;;17.40;5.83;;;0.30;99.90;;;;;;5075984;28;20056;-30
2022/12/16 01:13:43;;;;;;;12.00;5.47;;;0.40;99.90;;;;;;5076354;28;20048;-29
2022/12/16 01:16:08;;;;;;;11.43;5.00;;;0.40;99.90;;;;;;5076284;28;20053;-29
2022/12/16 01:18:35;;;;;;;15.93;5.88;;;0.90;99.90;;;;;;5076743;28;20355;-29
2022/12/16 01:21:05;;;;;;;13.05;5.25;;;0.50;99.90;;;;;;5076188;28;20040;-30
2022/12/16 01:23:32;;;;;;;9.10;4.93;;;0.50;99.90;;;;;;5075259;28;20496;-30
2022/12/16 01:26:00;;;;;;;12.02;4.53;;;0.80;99.90;;;;;;5076936;28;20048;-29
2022/12/16 01:28:27;;;;;;;11.20;4.82;;;0.50;99.90;;;;;;5075733;28;20479;-30
2022/12/16 01:31:00;;;;;;;15.70;6.20;;;1.10;99.90;;;;;;5075673;28;20487;-30
2022/12/16 01:33:30;;;;;;;9.05;5.10;;;0.80;99.90;;;;;;5075584;28;20055;-30
2022/12/16 01:36:01;;;;;;;12.00;5.30;;;0.60;99.90;;;;;;5058320;28;20056;-30
2022/12/16 01:38:26;;;;;;;10.55;4.63;;;0.60;99.90;;;;;;5075813;28;20041;-31
2022/12/16 01:40:52;;;;;;;8.02;4.55;;;0.60;99.90;;;;;;5075642;28;20048;-30
2022/12/16 01:43:21;;;;;;;10.93;4.88;;;0.70;99.90;;;;;;5076465;28;20052;-30
2022/12/16 01:45:47;;;;;;;11.10;5.03;;;0.70;99.90;;;;;;5075711;28;20040;-30
2022/12/16 01:48:28;;;;;;;13.63;5.13;;;0.60;99.90;;;;;;5074755;28;20052;-30
2022/12/16 01:51:00;;;;;;;17.67;4.97;;;0.60;99.90;;;;;;5075597;28;20053;-30
2022/12/16 01:53:26;;;;;;;16.40;5.47;;;0.50;99.90;;;;;;5076151;28;20049;-30
2022/12/16 01:55:54;;;;;;;15.73;4.65;;;0.50;99.90;;;;;;5075542;28;20051;-30
2022/12/16 01:58:23;;;;;;;13.45;4.25;;;0.60;99.90;;;;;;5075421;28;20386;-30
2022/12/16 02:00:49;;;;;;;10.50;4.90;;;0.40;99.90;;;;;;5075441;28;20043;-30
2022/12/16 02:03:15;;;;;;;16.70;5.10;;;0.40;99.90;;;;;;5075626;28;20044;-30
2022/12/16 02:05:43;;;;;;;11.30;4.93;;;0.50;99.90;;;;;;5075333;28;20047;-30
2022/12/16 02:08:09;;;;;;;13.73;5.60;;;0.50;99.90;;;;;;5075570;28;20051;-30
2022/12/16 02:10:43;;;;;;;13.23;5.82;;;0.50;99.90;;;;;;5075246;28;20057;-30
2022/12/16 02:13:34;;;;;;;11.35;6.25;;;0.50;99.90;;;;;;5075219;28;20092;-30
2022/12/16 02:16:32;;;;;;;10.23;5.72;;;0.60;99.90;;;;;;5075767;28;20083;-30
2022/12/16 02:19:25;;;;;;;10.82;5.00;;;0.50;99.90;;;;;;5074735;28;20393;-31
2022/12/16 02:22:08;;;;;;;8.40;5.10;;;0.50;99.90;;;;;;5075378;28;20060;-31
2022/12/16 02:24:59;;;;;;;10.80;5.10;;;0.60;99.90;;;;;;5057331;28;20055;-31
2022/12/16 02:28:02;;;;;;;12.18;5.75;;;0.70;99.90;;;;;;5075483;28;20052;-31
2022/12/16 02:30:59;;;;;;;11.67;5.27;;;0.70;99.90;;;;;;5061661;28;20064;-30
2022/12/16 02:33:42;;;;;;;12.05;5.50;;;0.70;99.90;;;;;;5074787;28;20293;-31
2022/12/16 02:36:31;;;;;;;9.65;4.95;;;0.80;99.90;;;;;;5074755;28;20052;-30
2022/12/16 02:39:20;;;;;;;8.18;4.63;;;0.80;99.90;;;;;;5075185;28;20047;-30
2022/12/16 02:42:11;;;;;;;10.85;5.72;;;0.80;99.90;;;;;;5074267;28;20081;-30
2022/12/16 02:45:04;;;;;;;14.77;5.47;;;0.70;99.90;;;;;;5075641;28;20052;-31
2022/12/16 02:47:31;;;;;;;12.43;5.60;;;0.70;99.90;;;;;;5074600;28;20055;-30
2022/12/16 02:49:57;;;;;;;18.20;5.63;;;0.70;99.90;;;;;;5074418;28;20479;-30
2022/12/16 02:52:32;;;;;;;10.82;5.55;;;0.70;99.90;;;;;;5074412;28;20052;-31
2022/12/16 02:55:05;;;;;;;7.78;5.00;;;0.70;99.90;;;;;;5073357;28;20055;-31
2022/12/16 02:57:46;;;;;;;12.55;5.57;;;0.60;99.90;;;;;;5074347;28;20119;-31
2022/12/16 03:00:17;;;;;;;12.93;5.88;;;0.60;99.90;;;;;;5074298;28;20052;-31
2022/12/16 03:03:04;;;;;;;8.25;5.40;;;0.60;99.90;;;;;;5074256;28;20044;-32
2022/12/16 03:05:42;;;;;;;12.13;5.47;;;0.50;99.90;;;;;;5075032;28;20094;-30
2022/12/16 03:08:25;;;;;;;11.80;5.23;;;0.60;99.90;;;;;;5074146;28;20044;-30
2022/12/16 03:10:56;;;;;;;7.75;5.85;;;0.60;99.90;;;;;;5074015;28;20131;-30
2022/12/16 03:13:24;;;;;;;16.75;5.72;;;0.60;99.90;;;;;;5074100;28;20053;-31
2022/12/16 03:15:52;;;;;;;11.70;5.20;;;0.50;99.90;;;;;;5074004;28;20402;-32
2022/12/16 03:18:20;;;;;;;11.50;5.25;;;0.50;99.90;;;;;;5074682;28;20123;-31
2022/12/16 03:21:05;;;;;;;11.10;5.88;;;0.50;99.90;;;;;;5073931;28;20075;-31
2022/12/16 03:23:39;;;;;;;10.07;5.70;;;0.50;99.90;;;;;;5073829;28;20077;-30
2022/12/16 03:26:11;;;;;;;13.77;5.25;;;0.50;99.90;;;;;;5073925;28;20083;-31
2022/12/16 03:29:03;;;;;;;10.80;5.90;;;0.50;99.90;;;;;;5073906;28;20052;-30
2022/12/16 03:31:45;;;;;;;12.60;5.50;;;0.50;99.90;;;;;;5062596;28;20099;-31
2022/12/16 03:34:24;;;;;;;15.38;5.97;;;0.40;99.90;;;;;;5073838;28;20052;-31
2022/12/16 03:36:55;;;;;;;9.55;5.80;;;0.40;99.90;;;;;;5073828;28;20060;-31
2022/12/16 03:39:22;;;;;;;9.93;5.82;;;0.50;99.90;;;;;;5074235;28;20051;-32
2022/12/16 03:41:55;;;;;;;10.90;6.30;;;0.50;99.90;;;;;;5073570;28;20499;-32
2022/12/16 03:44:24;;;;;;;13.75;7.78;;;0.60;99.90;;;;;;5056298;28;20089;-31
2022/12/16 03:46:50;;;;;;;18.40;9.50;;;0.70;99.90;;;;;;5072069;28;20109;-31
2022/12/16 03:49:16;;;;;;;16.48;10.65;;;0.70;99.90;;;;;;5073605;28;20048;-31
2022/12/16 03:51:42;;;;;;;14.93;9.93;;;0.80;99.90;;;;;;5074388;28;20052;-31
2022/12/16 03:54:07;;;;;;;23.90;15.50;;;1.40;99.90;;;;;;5055932;28;20044;-30
2022/12/16 03:56:33;;;;;;;26.13;15.38;;;1.10;99.90;;;;;;5073600;28;20052;-31
2022/12/16 03:58:59;;;;;;;29.55;17.67;;;1.20;99.90;;;;;;5073435;28;20040;-31
2022/12/16 04:01:25;;;;;;;41.47;22.35;;;2.00;99.90;;;;;;5055711;28;20053;-31
2022/12/16 04:03:50;;;;;;;32.42;19.25;;;1.10;99.90;;;;;;5056620;28;20051;-32
2022/12/16 04:06:17;;;;;;;35.55;22.25;;;1.10;99.90;;;;;;5074284;28;20386;-31
2022/12/16 04:08:47;;;;;;;47.95;27.95;;;1.10;99.90;;;;;;5073421;28;20092;-31
2022/12/16 04:25:30;;;;;;;61.45;31.67;;;1.00;99.90;;;;;;5073162;28;20088;-31
2022/12/16 04:27:57;;;;;;;63.05;33.88;;;1.00;99.90;;;;;;5073808;28;20168;-31
2022/12/16 04:30:23;;;;;;;62.30;30.38;;;1.00;99.90;;;;;;5072678;28;20052;-31
